sensor_id;sensor_type;location;lat;lon;timestamp;P1;durP1;ratioP1;P2;durP2;ratioP2
58196;SDS011;43999;51.660;5.616;2023-04-26T00:02:22;13.90;;;8.60;;
58196;SDS011;43999;51.660;5.616;2023-04-26T00:04:51;13.60;;;7.28;;
58196;SDS011;43999;51.660;5.616;2023-04-26T00:07:24;21.25;;;10.18;;
58196;SDS011;43999;51.660;5.616;2023-04-26T00:09:52;13.13;;;8.73;;
58196;SDS011;43999;51.660;5.616;2023-04-26T00:12:22;11.52;;;8.38;;
58196;SDS011;43999;51.660;5.616;2023-04-26T00:14:51;16.13;;;9.00;;
58196;SDS011;43999;51.660;5.616;2023-04-26T00:17:18;12.70;;;8.55;;
58196;SDS011;43999;51.660;5.616;2023-04-26T00:19:46;13.82;;;7.53;;
58196;SDS011;43999;51.660;5.616;2023-04-26T00:22:13;11.23;;;8.27;;
58196;SDS011;43999;51.660;5.616;2023-04-26T00:24:41;11.55;;;8.45;;
58196;SDS011;43999;51.660;5.616;2023-04-26T00:27:10;15.13;;;9.60;;
58196;SDS011;43999;51.660;5.616;2023-04-26T00:29:38;17.00;;;9.70;;
58196;SDS011;43999;51.660;5.616;2023-04-26T00:32:07;12.07;;;8.02;;
58196;SDS011;43999;51.660;5.616;2023-04-26T00:34:36;15.25;;;9.13;;
58196;SDS011;43999;51.660;5.616;2023-04-26T00:37:04;15.60;;;9.35;;
58196;SDS011;43999;51.660;5.616;2023-04-26T00:39:31;14.90;;;9.63;;
58196;SDS011;43999;51.660;5.616;2023-04-26T00:42:00;14.27;;;9.02;;
58196;SDS011;43999;51.660;5.616;2023-04-26T00:44:28;15.63;;;9.07;;
58196;SDS011;43999;51.660;5.616;2023-04-26T00:46:56;12.73;;;8.85;;
58196;SDS011;43999;51.660;5.616;2023-04-26T00:49:23;14.40;;;9.43;;
58196;SDS011;43999;51.660;5.616;2023-04-26T00:51:53;16.40;;;9.43;;
58196;SDS011;43999;51.660;5.616;2023-04-26T00:54:22;12.18;;;8.55;;
58196;SDS011;43999;51.660;5.616;2023-04-26T00:56:51;13.25;;;10.23;;
58196;SDS011;43999;51.660;5.616;2023-04-26T00:59:20;12.95;;;9.32;;
58196;SDS011;43999;51.660;5.616;2023-04-26T01:01:49;15.35;;;9.88;;
58196;SDS011;43999;51.660;5.616;2023-04-26T01:04:17;19.30;;;9.45;;
58196;SDS011;43999;51.660;5.616;2023-04-26T01:06:46;16.73;;;10.63;;
58196;SDS011;43999;51.660;5.616;2023-04-26T01:09:16;16.30;;;8.80;;
58196;SDS011;43999;51.660;5.616;2023-04-26T01:11:44;18.90;;;9.88;;
58196;SDS011;43999;51.660;5.616;2023-04-26T01:14:13;17.25;;;9.88;;
58196;SDS011;43999;51.660;5.616;2023-04-26T01:16:41;19.02;;;10.45;;
58196;SDS011;43999;51.660;5.616;2023-04-26T01:19:18;12.80;;;9.60;;
58196;SDS011;43999;51.660;5.616;2023-04-26T01:21:46;14.15;;;8.90;;
58196;SDS011;43999;51.660;5.616;2023-04-26T01:24:15;12.88;;;9.65;;
58196;SDS011;43999;51.660;5.616;2023-04-26T01:26:44;17.23;;;11.40;;
58196;SDS011;43999;51.660;5.616;2023-04-26T01:29:17;16.58;;;9.65;;
58196;SDS011;43999;51.660;5.616;2023-04-26T01:31:48;15.30;;;11.10;;
58196;SDS011;43999;51.660;5.616;2023-04-26T01:34:19;16.55;;;10.30;;
58196;SDS011;43999;51.660;5.616;2023-04-26T01:36:47;18.48;;;10.13;;
58196;SDS011;43999;51.660;5.616;2023-04-26T01:39:14;12.15;;;10.10;;
58196;SDS011;43999;51.660;5.616;2023-04-26T01:41:42;12.52;;;9.95;;
58196;SDS011;43999;51.660;5.616;2023-04-26T01:44:09;14.48;;;9.25;;
58196;SDS011;43999;51.660;5.616;2023-04-26T01:46:36;14.48;;;10.88;;
58196;SDS011;43999;51.660;5.616;2023-04-26T01:49:05;13.88;;;10.48;;
58196;SDS011;43999;51.660;5.616;2023-04-26T01:51:33;14.20;;;12.70;;
58196;SDS011;43999;51.660;5.616;2023-04-26T01:54:00;20.05;;;10.73;;
58196;SDS011;43999;51.660;5.616;2023-04-26T01:56:30;18.73;;;11.10;;
58196;SDS011;43999;51.660;5.616;2023-04-26T01:58:59;16.10;;;10.68;;
58196;SDS011;43999;51.660;5.616;2023-04-26T02:01:28;17.40;;;9.70;;
58196;SDS011;43999;51.660;5.616;2023-04-26T02:03:56;17.25;;;10.50;;
58196;SDS011;43999;51.660;5.616;2023-04-26T02:06:24;13.95;;;11.02;;
58196;SDS011;43999;51.660;5.616;2023-04-26T02:08:52;14.60;;;10.38;;
58196;SDS011;43999;51.660;5.616;2023-04-26T02:11:20;11.13;;;9.27;;
58196;SDS011;43999;51.660;5.616;2023-04-26T02:13:51;21.25;;;11.75;;
58196;SDS011;43999;51.660;5.616;2023-04-26T02:16:20;17.05;;;9.95;;
58196;SDS011;43999;51.660;5.616;2023-04-26T02:18:47;15.05;;;10.65;;
58196;SDS011;43999;51.660;5.616;2023-04-26T02:21:17;14.65;;;10.52;;
58196;SDS011;43999;51.660;5.616;2023-04-26T02:23:45;15.40;;;9.57;;
58196;SDS011;43999;51.660;5.616;2023-04-26T02:26:13;15.65;;;10.48;;
58196;SDS011;43999;51.660;5.616;2023-04-26T02:28:42;14.93;;;10.27;;
58196;SDS011;43999;51.660;5.616;2023-04-26T02:31:09;16.67;;;12.32;;
58196;SDS011;43999;51.660;5.616;2023-04-26T02:33:37;17.27;;;11.07;;
58196;SDS011;43999;51.660;5.616;2023-04-26T02:36:10;17.58;;;9.60;;
58196;SDS011;43999;51.660;5.616;2023-04-26T02:38:39;15.18;;;9.25;;
58196;SDS011;43999;51.660;5.616;2023-04-26T02:41:09;14.18;;;10.55;;
58196;SDS011;43999;51.660;5.616;2023-04-26T02:43:38;22.05;;;11.35;;
58196;SDS011;43999;51.660;5.616;2023-04-26T02:46:06;14.50;;;9.93;;
58196;SDS011;43999;51.660;5.616;2023-04-26T02:48:34;19.35;;;9.30;;
58196;SDS011;43999;51.660;5.616;2023-04-26T02:51:10;14.98;;;9.93;;
58196;SDS011;43999;51.660;5.616;2023-04-26T02:53:40;15.18;;;10.93;;
58196;SDS011;43999;51.660;5.616;2023-04-26T02:56:08;14.70;;;10.30;;
58196;SDS011;43999;51.660;5.616;2023-04-26T02:58:37;17.42;;;11.85;;
58196;SDS011;43999;51.660;5.616;2023-04-26T03:01:05;21.50;;;10.80;;
58196;SDS011;43999;51.660;5.616;2023-04-26T03:03:34;16.25;;;10.05;;
58196;SDS011;43999;51.660;5.616;2023-04-26T03:06:06;18.15;;;12.20;;
58196;SDS011;43999;51.660;5.616;2023-04-26T03:08:33;21.65;;;12.40;;
58196;SDS011;43999;51.660;5.616;2023-04-26T03:11:02;18.60;;;11.27;;
58196;SDS011;43999;51.660;5.616;2023-04-26T03:13:29;15.55;;;10.15;;
58196;SDS011;43999;51.660;5.616;2023-04-26T03:15:57;16.90;;;11.18;;
58196;SDS011;43999;51.660;5.616;2023-04-26T03:18:27;19.13;;;12.40;;
58196;SDS011;43999;51.660;5.616;2023-04-26T03:20:55;17.45;;;10.38;;
58196;SDS011;43999;51.660;5.616;2023-04-26T03:23:23;15.40;;;10.63;;
58196;SDS011;43999;51.660;5.616;2023-04-26T03:25:51;18.40;;;11.68;;
58196;SDS011;43999;51.660;5.616;2023-04-26T03:28:28;13.93;;;9.52;;
58196;SDS011;43999;51.660;5.616;2023-04-26T03:30:57;19.15;;;10.02;;
58196;SDS011;43999;51.660;5.616;2023-04-26T03:33:25;17.60;;;10.95;;
58196;SDS011;43999;51.660;5.616;2023-04-26T03:35:53;18.15;;;10.68;;
58196;SDS011;43999;51.660;5.616;2023-04-26T03:38:22;17.50;;;10.10;;
58196;SDS011;43999;51.660;5.616;2023-04-26T03:40:50;20.98;;;12.48;;
58196;SDS011;43999;51.660;5.616;2023-04-26T03:43:18;18.30;;;10.57;;
58196;SDS011;43999;51.660;5.616;2023-04-26T03:45:46;19.17;;;11.15;;
58196;SDS011;43999;51.660;5.616;2023-04-26T03:48:16;15.27;;;10.15;;
58196;SDS011;43999;51.660;5.616;2023-04-26T03:50:44;20.98;;;10.50;;
58196;SDS011;43999;51.660;5.616;2023-04-26T03:53:12;17.52;;;10.98;;
58196;SDS011;43999;51.660;5.616;2023-04-26T03:55:39;17.88;;;10.27;;
58196;SDS011;43999;51.660;5.616;2023-04-26T03:58:09;16.20;;;9.18;;
58196;SDS011;43999;51.660;5.616;2023-04-26T04:00:37;16.73;;;9.43;;
58196;SDS011;43999;51.660;5.616;2023-04-26T04:03:05;17.70;;;10.52;;
58196;SDS011;43999;51.660;5.616;2023-04-26T04:05:33;18.58;;;11.85;;
58196;SDS011;43999;51.660;5.616;2023-04-26T04:08:02;25.33;;;12.85;;
58196;SDS011;43999;51.660;5.616;2023-04-26T04:10:31;16.95;;;10.60;;
58196;SDS011;43999;51.660;5.616;2023-04-26T04:12:59;18.92;;;10.02;;
58196;SDS011;43999;51.660;5.616;2023-04-26T04:15:28;14.05;;;10.07;;
58196;SDS011;43999;51.660;5.616;2023-04-26T04:17:56;14.38;;;10.45;;
58196;SDS011;43999;51.660;5.616;2023-04-26T04:20:23;17.55;;;11.32;;
58196;SDS011;43999;51.660;5.616;2023-04-26T04:22:54;19.77;;;11.20;;
58196;SDS011;43999;51.660;5.616;2023-04-26T04:25:24;17.88;;;11.18;;
58196;SDS011;43999;51.660;5.616;2023-04-26T04:27:57;17.88;;;10.55;;
58196;SDS011;43999;51.660;5.616;2023-04-26T04:30:25;15.65;;;11.25;;
58196;SDS011;43999;51.660;5.616;2023-04-26T04:32:52;27.70;;;12.15;;
58196;SDS011;43999;51.660;5.616;2023-04-26T04:35:22;17.40;;;12.15;;
58196;SDS011;43999;51.660;5.616;2023-04-26T04:37:55;14.88;;;11.43;;
58196;SDS011;43999;51.660;5.616;2023-04-26T04:40:23;16.35;;;11.73;;
58196;SDS011;43999;51.660;5.616;2023-04-26T04:42:53;20.02;;;12.98;;
58196;SDS011;43999;51.660;5.616;2023-04-26T04:45:23;17.63;;;11.18;;
58196;SDS011;43999;51.660;5.616;2023-04-26T04:47:55;16.48;;;11.20;;
58196;SDS011;43999;51.660;5.616;2023-04-26T04:50:24;19.92;;;12.23;;
58196;SDS011;43999;51.660;5.616;2023-04-26T04:52:54;19.70;;;13.23;;
58196;SDS011;43999;51.660;5.616;2023-04-26T04:55:21;17.35;;;13.38;;
58196;SDS011;43999;51.660;5.616;2023-04-26T04:57:50;24.80;;;14.18;;
58196;SDS011;43999;51.660;5.616;2023-04-26T05:00:20;17.75;;;12.88;;
58196;SDS011;43999;51.660;5.616;2023-04-26T05:03:00;19.23;;;12.20;;
58196;SDS011;43999;51.660;5.616;2023-04-26T05:05:29;24.73;;;13.60;;
58196;SDS011;43999;51.660;5.616;2023-04-26T05:07:57;19.23;;;12.77;;
58196;SDS011;43999;51.660;5.616;2023-04-26T05:10:26;14.13;;;11.93;;
58196;SDS011;43999;51.660;5.616;2023-04-26T05:12:55;17.85;;;12.70;;
58196;SDS011;43999;51.660;5.616;2023-04-26T05:15:24;17.90;;;13.27;;
58196;SDS011;43999;51.660;5.616;2023-04-26T05:18:04;18.20;;;12.82;;
58196;SDS011;43999;51.660;5.616;2023-04-26T05:20:31;25.45;;;14.70;;
58196;SDS011;43999;51.660;5.616;2023-04-26T05:23:01;16.77;;;11.52;;
58196;SDS011;43999;51.660;5.616;2023-04-26T05:25:30;16.90;;;11.43;;
58196;SDS011;43999;51.660;5.616;2023-04-26T05:28:17;15.23;;;10.50;;
58196;SDS011;43999;51.660;5.616;2023-04-26T05:31:13;18.13;;;12.15;;
58196;SDS011;43999;51.660;5.616;2023-04-26T05:33:55;19.10;;;11.88;;
58196;SDS011;43999;51.660;5.616;2023-04-26T05:36:28;15.50;;;10.43;;
58196;SDS011;43999;51.660;5.616;2023-04-26T05:38:57;18.52;;;11.80;;
58196;SDS011;43999;51.660;5.616;2023-04-26T05:41:26;17.05;;;13.10;;
58196;SDS011;43999;51.660;5.616;2023-04-26T05:43:56;20.55;;;12.57;;
58196;SDS011;43999;51.660;5.616;2023-04-26T05:46:24;17.35;;;11.50;;
58196;SDS011;43999;51.660;5.616;2023-04-26T05:48:55;19.25;;;13.02;;
58196;SDS011;43999;51.660;5.616;2023-04-26T05:51:25;19.98;;;12.55;;
58196;SDS011;43999;51.660;5.616;2023-04-26T05:53:54;13.45;;;9.93;;
58196;SDS011;43999;51.660;5.616;2023-04-26T05:56:23;19.30;;;11.75;;
58196;SDS011;43999;51.660;5.616;2023-04-26T05:58:53;19.98;;;12.23;;
58196;SDS011;43999;51.660;5.616;2023-04-26T06:01:21;18.83;;;11.13;;
58196;SDS011;43999;51.660;5.616;2023-04-26T06:03:49;14.73;;;12.05;;
58196;SDS011;43999;51.660;5.616;2023-04-26T06:06:21;17.70;;;11.15;;
58196;SDS011;43999;51.660;5.616;2023-04-26T06:08:51;15.73;;;12.02;;
58196;SDS011;43999;51.660;5.616;2023-04-26T06:11:19;16.83;;;11.93;;
58196;SDS011;43999;51.660;5.616;2023-04-26T06:13:49;15.95;;;11.68;;
58196;SDS011;43999;51.660;5.616;2023-04-26T06:16:17;17.50;;;13.38;;
58196;SDS011;43999;51.660;5.616;2023-04-26T06:18:46;16.65;;;11.13;;
58196;SDS011;43999;51.660;5.616;2023-04-26T06:21:16;15.40;;;10.45;;
58196;SDS011;43999;51.660;5.616;2023-04-26T06:23:46;17.70;;;10.13;;
58196;SDS011;43999;51.660;5.616;2023-04-26T06:26:19;15.18;;;10.68;;
58196;SDS011;43999;51.660;5.616;2023-04-26T06:28:49;13.70;;;10.27;;
58196;SDS011;43999;51.660;5.616;2023-04-26T06:31:16;16.90;;;10.77;;
58196;SDS011;43999;51.660;5.616;2023-04-26T06:33:52;14.30;;;9.80;;
58196;SDS011;43999;51.660;5.616;2023-04-26T06:36:22;15.70;;;9.10;;
58196;SDS011;43999;51.660;5.616;2023-04-26T06:38:53;13.05;;;9.82;;
58196;SDS011;43999;51.660;5.616;2023-04-26T06:41:22;18.00;;;10.27;;
58196;SDS011;43999;51.660;5.616;2023-04-26T06:43:52;18.98;;;10.35;;
58196;SDS011;43999;51.660;5.616;2023-04-26T06:46:20;19.33;;;11.13;;
58196;SDS011;43999;51.660;5.616;2023-04-26T06:48:55;15.13;;;11.02;;
58196;SDS011;43999;51.660;5.616;2023-04-26T06:51:28;15.18;;;10.98;;
58196;SDS011;43999;51.660;5.616;2023-04-26T06:54:06;19.30;;;9.93;;
58196;SDS011;43999;51.660;5.616;2023-04-26T06:56:34;13.55;;;10.93;;
58196;SDS011;43999;51.660;5.616;2023-04-26T06:59:05;15.23;;;10.88;;
58196;SDS011;43999;51.660;5.616;2023-04-26T07:01:33;14.07;;;9.43;;
58196;SDS011;43999;51.660;5.616;2023-04-26T07:04:02;15.32;;;10.07;;
58196;SDS011;43999;51.660;5.616;2023-04-26T07:06:39;13.60;;;10.43;;
58196;SDS011;43999;51.660;5.616;2023-04-26T07:09:07;14.23;;;9.15;;
58196;SDS011;43999;51.660;5.616;2023-04-26T07:11:37;16.80;;;8.85;;
58196;SDS011;43999;51.660;5.616;2023-04-26T07:14:06;14.25;;;8.98;;
58196;SDS011;43999;51.660;5.616;2023-04-26T07:16:35;15.43;;;9.18;;
58196;SDS011;43999;51.660;5.616;2023-04-26T07:19:05;18.65;;;11.23;;
58196;SDS011;43999;51.660;5.616;2023-04-26T07:21:34;8.07;;;5.25;;
58196;SDS011;43999;51.660;5.616;2023-04-26T07:24:04;9.60;;;6.72;;
58196;SDS011;43999;51.660;5.616;2023-04-26T07:26:34;8.68;;;5.95;;
58196;SDS011;43999;51.660;5.616;2023-04-26T07:29:03;8.10;;;6.28;;
58196;SDS011;43999;51.660;5.616;2023-04-26T07:31:31;9.98;;;6.35;;
58196;SDS011;43999;51.660;5.616;2023-04-26T07:34:08;12.82;;;5.50;;
58196;SDS011;43999;51.660;5.616;2023-04-26T07:36:47;6.70;;;5.25;;
58196;SDS011;43999;51.660;5.616;2023-04-26T07:39:19;8.75;;;6.00;;
58196;SDS011;43999;51.660;5.616;2023-04-26T07:41:47;8.48;;;5.22;;
58196;SDS011;43999;51.660;5.616;2023-04-26T07:44:14;7.05;;;5.28;;
58196;SDS011;43999;51.660;5.616;2023-04-26T07:46:53;10.23;;;5.93;;
58196;SDS011;43999;51.660;5.616;2023-04-26T07:49:28;7.22;;;4.90;;
58196;SDS011;43999;51.660;5.616;2023-04-26T07:51:57;12.88;;;5.15;;
58196;SDS011;43999;51.660;5.616;2023-04-26T07:54:28;7.60;;;4.10;;
58196;SDS011;43999;51.660;5.616;2023-04-26T07:57:00;8.73;;;4.35;;
58196;SDS011;43999;51.660;5.616;2023-04-26T07:59:31;8.88;;;4.63;;
58196;SDS011;43999;51.660;5.616;2023-04-26T08:02:03;7.93;;;5.32;;
58196;SDS011;43999;51.660;5.616;2023-04-26T08:04:31;6.95;;;4.47;;
58196;SDS011;43999;51.660;5.616;2023-04-26T08:07:00;9.35;;;4.28;;
58196;SDS011;43999;51.660;5.616;2023-04-26T08:09:31;8.23;;;3.58;;
58196;SDS011;43999;51.660;5.616;2023-04-26T08:11:58;7.97;;;4.45;;
58196;SDS011;43999;51.660;5.616;2023-04-26T08:14:27;8.32;;;3.28;;
58196;SDS011;43999;51.660;5.616;2023-04-26T08:16:56;11.43;;;4.28;;
58196;SDS011;43999;51.660;5.616;2023-04-26T08:19:24;6.38;;;3.53;;
58196;SDS011;43999;51.660;5.616;2023-04-26T08:21:52;4.95;;;3.22;;
58196;SDS011;43999;51.660;5.616;2023-04-26T08:24:21;4.78;;;3.00;;
58196;SDS011;43999;51.660;5.616;2023-04-26T08:26:49;7.25;;;3.90;;
58196;SDS011;43999;51.660;5.616;2023-04-26T08:29:16;6.28;;;4.05;;
58196;SDS011;43999;51.660;5.616;2023-04-26T08:31:52;8.15;;;3.83;;
58196;SDS011;43999;51.660;5.616;2023-04-26T08:34:23;8.35;;;4.25;;
58196;SDS011;43999;51.660;5.616;2023-04-26T08:36:50;6.22;;;3.97;;
58196;SDS011;43999;51.660;5.616;2023-04-26T08:39:19;8.57;;;3.85;;
58196;SDS011;43999;51.660;5.616;2023-04-26T08:41:52;6.82;;;2.58;;
58196;SDS011;43999;51.660;5.616;2023-04-26T08:44:23;5.22;;;2.90;;
58196;SDS011;43999;51.660;5.616;2023-04-26T08:49:53;5.03;;;2.50;;
58196;SDS011;43999;51.660;5.616;2023-04-26T08:52:31;5.75;;;3.17;;
58196;SDS011;43999;51.660;5.616;2023-04-26T08:55:03;6.15;;;3.38;;
58196;SDS011;43999;51.660;5.616;2023-04-26T08:57:39;9.63;;;4.05;;
58196;SDS011;43999;51.660;5.616;2023-04-26T09:00:20;5.07;;;2.47;;
58196;SDS011;43999;51.660;5.616;2023-04-26T09:02:50;4.85;;;3.67;;
58196;SDS011;43999;51.660;5.616;2023-04-26T09:05:23;4.60;;;3.38;;
58196;SDS011;43999;51.660;5.616;2023-04-26T09:07:55;7.22;;;3.28;;
58196;SDS011;43999;51.660;5.616;2023-04-26T09:10:29;5.57;;;3.20;;
58196;SDS011;43999;51.660;5.616;2023-04-26T09:13:03;5.75;;;3.58;;
58196;SDS011;43999;51.660;5.616;2023-04-26T09:15:30;6.68;;;4.05;;
58196;SDS011;43999;51.660;5.616;2023-04-26T09:18:14;6.53;;;3.97;;
58196;SDS011;43999;51.660;5.616;2023-04-26T09:21:01;6.75;;;3.08;;
58196;SDS011;43999;51.660;5.616;2023-04-26T09:23:34;5.95;;;3.58;;
58196;SDS011;43999;51.660;5.616;2023-04-26T09:26:24;7.28;;;3.65;;
58196;SDS011;43999;51.660;5.616;2023-04-26T09:29:14;6.38;;;3.53;;
58196;SDS011;43999;51.660;5.616;2023-04-26T09:31:47;6.82;;;4.07;;
58196;SDS011;43999;51.660;5.616;2023-04-26T09:34:25;4.20;;;2.95;;
58196;SDS011;43999;51.660;5.616;2023-04-26T09:36:54;6.80;;;3.25;;
58196;SDS011;43999;51.660;5.616;2023-04-26T09:39:36;7.82;;;2.80;;
58196;SDS011;43999;51.660;5.616;2023-04-26T09:42:10;6.43;;;3.65;;
58196;SDS011;43999;51.660;5.616;2023-04-26T09:44:46;7.68;;;4.20;;
58196;SDS011;43999;51.660;5.616;2023-04-26T09:47:14;7.63;;;4.20;;
58196;SDS011;43999;51.660;5.616;2023-04-26T09:52:19;4.32;;;3.20;;
58196;SDS011;43999;51.660;5.616;2023-04-26T09:54:49;4.88;;;3.30;;
58196;SDS011;43999;51.660;5.616;2023-04-26T09:57:24;5.95;;;2.88;;
58196;SDS011;43999;51.660;5.616;2023-04-26T10:00:00;5.00;;;2.70;;
58196;SDS011;43999;51.660;5.616;2023-04-26T10:02:40;4.75;;;2.78;;
58196;SDS011;43999;51.660;5.616;2023-04-26T10:05:08;4.70;;;3.13;;
58196;SDS011;43999;51.660;5.616;2023-04-26T10:07:44;4.50;;;2.85;;
58196;SDS011;43999;51.660;5.616;2023-04-26T10:10:20;4.25;;;2.65;;
58196;SDS011;43999;51.660;5.616;2023-04-26T10:12:47;9.65;;;3.05;;
58196;SDS011;43999;51.660;5.616;2023-04-26T10:15:15;4.45;;;3.17;;
58196;SDS011;43999;51.660;5.616;2023-04-26T10:17:44;7.70;;;4.20;;
58196;SDS011;43999;51.660;5.616;2023-04-26T10:20:13;6.88;;;3.38;;
58196;SDS011;43999;51.660;5.616;2023-04-26T10:22:45;7.05;;;3.55;;
58196;SDS011;43999;51.660;5.616;2023-04-26T10:25:37;5.07;;;2.97;;
58196;SDS011;43999;51.660;5.616;2023-04-26T10:35:09;10.18;;;4.38;;
58196;SDS011;43999;51.660;5.616;2023-04-26T10:40:35;4.38;;;3.45;;
58196;SDS011;43999;51.660;5.616;2023-04-26T10:45:48;7.00;;;4.65;;
58196;SDS011;43999;51.660;5.616;2023-04-26T10:51:09;6.10;;;4.32;;
58196;SDS011;43999;51.660;5.616;2023-04-26T10:59:19;5.20;;;3.65;;
58196;SDS011;43999;51.660;5.616;2023-04-26T11:02:11;7.93;;;3.20;;
58196;SDS011;43999;51.660;5.616;2023-04-26T11:04:50;4.72;;;3.58;;
58196;SDS011;43999;51.660;5.616;2023-04-26T11:07:44;6.53;;;3.85;;
58196;SDS011;43999;51.660;5.616;2023-04-26T11:10:30;4.55;;;3.20;;
58196;SDS011;43999;51.660;5.616;2023-04-26T11:13:02;6.40;;;4.00;;
58196;SDS011;43999;51.660;5.616;2023-04-26T11:15:33;6.00;;;2.97;;
58196;SDS011;43999;51.660;5.616;2023-04-26T11:18:08;4.55;;;3.28;;
58196;SDS011;43999;51.660;5.616;2023-04-26T11:20:40;4.18;;;3.22;;
58196;SDS011;43999;51.660;5.616;2023-04-26T11:23:14;8.18;;;3.53;;
58196;SDS011;43999;51.660;5.616;2023-04-26T11:25:45;7.35;;;4.28;;
58196;SDS011;43999;51.660;5.616;2023-04-26T11:28:15;4.60;;;3.45;;
58196;SDS011;43999;51.660;5.616;2023-04-26T11:30:55;7.00;;;3.25;;
58196;SDS011;43999;51.660;5.616;2023-04-26T11:33:25;5.05;;;2.85;;
58196;SDS011;43999;51.660;5.616;2023-04-26T11:35:57;6.10;;;3.25;;
58196;SDS011;43999;51.660;5.616;2023-04-26T11:38:29;5.78;;;3.70;;
58196;SDS011;43999;51.660;5.616;2023-04-26T11:40:58;7.35;;;3.83;;
58196;SDS011;43999;51.660;5.616;2023-04-26T11:46:18;6.88;;;3.85;;
58196;SDS011;43999;51.660;5.616;2023-04-26T11:48:49;5.70;;;3.60;;
58196;SDS011;43999;51.660;5.616;2023-04-26T11:51:18;6.15;;;4.45;;
58196;SDS011;43999;51.660;5.616;2023-04-26T11:53:49;6.00;;;3.72;;
58196;SDS011;43999;51.660;5.616;2023-04-26T11:56:20;7.80;;;5.15;;
58196;SDS011;43999;51.660;5.616;2023-04-26T11:58:54;4.13;;;3.63;;
58196;SDS011;43999;51.660;5.616;2023-04-26T12:01:27;5.30;;;4.35;;
58196;SDS011;43999;51.660;5.616;2023-04-26T12:04:11;6.55;;;4.40;;
58196;SDS011;43999;51.660;5.616;2023-04-26T12:06:43;7.38;;;4.25;;
58196;SDS011;43999;51.660;5.616;2023-04-26T12:09:29;5.35;;;3.95;;
58196;SDS011;43999;51.660;5.616;2023-04-26T12:12:06;9.77;;;4.53;;
58196;SDS011;43999;51.660;5.616;2023-04-26T12:14:34;5.90;;;4.05;;
58196;SDS011;43999;51.660;5.616;2023-04-26T12:17:06;6.40;;;4.18;;
58196;SDS011;43999;51.660;5.616;2023-04-26T12:19:37;4.68;;;4.10;;
58196;SDS011;43999;51.660;5.616;2023-04-26T12:22:07;7.97;;;4.55;;
58196;SDS011;43999;51.660;5.616;2023-04-26T12:24:37;5.35;;;4.85;;
58196;SDS011;43999;51.660;5.616;2023-04-26T12:27:19;6.90;;;3.75;;
58196;SDS011;43999;51.660;5.616;2023-04-26T12:29:47;7.75;;;4.40;;
58196;SDS011;43999;51.660;5.616;2023-04-26T12:32:16;7.35;;;4.40;;
58196;SDS011;43999;51.660;5.616;2023-04-26T12:34:47;8.90;;;4.35;;
58196;SDS011;43999;51.660;5.616;2023-04-26T12:37:15;8.23;;;4.35;;
58196;SDS011;43999;51.660;5.616;2023-04-26T12:39:47;6.55;;;4.47;;
58196;SDS011;43999;51.660;5.616;2023-04-26T12:42:23;5.38;;;4.18;;
58196;SDS011;43999;51.660;5.616;2023-04-26T12:44:51;6.88;;;4.85;;
58196;SDS011;43999;51.660;5.616;2023-04-26T12:47:23;5.90;;;4.13;;
58196;SDS011;43999;51.660;5.616;2023-04-26T12:49:52;9.50;;;4.78;;
58196;SDS011;43999;51.660;5.616;2023-04-26T12:52:47;6.45;;;4.40;;
58196;SDS011;43999;51.660;5.616;2023-04-26T12:55:15;6.85;;;5.22;;
58196;SDS011;43999;51.660;5.616;2023-04-26T12:57:45;7.57;;;4.35;;
58196;SDS011;43999;51.660;5.616;2023-04-26T13:00:13;7.82;;;5.90;;
58196;SDS011;43999;51.660;5.616;2023-04-26T13:02:45;7.55;;;4.80;;
58196;SDS011;43999;51.660;5.616;2023-04-26T13:05:15;5.53;;;4.57;;
58196;SDS011;43999;51.660;5.616;2023-04-26T13:07:44;6.45;;;4.53;;
58196;SDS011;43999;51.660;5.616;2023-04-26T13:10:20;6.07;;;3.95;;
58196;SDS011;43999;51.660;5.616;2023-04-26T13:12:48;6.95;;;5.22;;
58196;SDS011;43999;51.660;5.616;2023-04-26T13:15:15;8.45;;;5.43;;
58196;SDS011;43999;51.660;5.616;2023-04-26T13:17:49;7.75;;;4.95;;
58196;SDS011;43999;51.660;5.616;2023-04-26T13:20:24;7.85;;;4.97;;
58196;SDS011;43999;51.660;5.616;2023-04-26T13:23:09;7.38;;;4.97;;
58196;SDS011;43999;51.660;5.616;2023-04-26T13:25:39;11.15;;;5.95;;
58196;SDS011;43999;51.660;5.616;2023-04-26T13:28:11;7.40;;;4.30;;
58196;SDS011;43999;51.660;5.616;2023-04-26T13:30:44;6.68;;;4.53;;
58196;SDS011;43999;51.660;5.616;2023-04-26T13:33:11;5.65;;;4.70;;
58196;SDS011;43999;51.660;5.616;2023-04-26T13:35:41;7.75;;;5.15;;
58196;SDS011;43999;51.660;5.616;2023-04-26T13:38:10;7.65;;;4.68;;
58196;SDS011;43999;51.660;5.616;2023-04-26T13:40:38;6.40;;;4.47;;
58196;SDS011;43999;51.660;5.616;2023-04-26T13:43:15;6.00;;;4.22;;
58196;SDS011;43999;51.660;5.616;2023-04-26T13:45:57;6.55;;;5.00;;
58196;SDS011;43999;51.660;5.616;2023-04-26T13:48:30;9.00;;;4.80;;
58196;SDS011;43999;51.660;5.616;2023-04-26T13:51:12;6.03;;;4.95;;
58196;SDS011;43999;51.660;5.616;2023-04-26T13:53:47;6.45;;;5.18;;
58196;SDS011;43999;51.660;5.616;2023-04-26T13:56:16;7.32;;;5.10;;
58196;SDS011;43999;51.660;5.616;2023-04-26T13:58:46;6.13;;;4.03;;
58196;SDS011;43999;51.660;5.616;2023-04-26T14:01:14;6.32;;;4.30;;
58196;SDS011;43999;51.660;5.616;2023-04-26T14:03:43;9.15;;;5.53;;
58196;SDS011;43999;51.660;5.616;2023-04-26T14:06:18;9.07;;;5.07;;
58196;SDS011;43999;51.660;5.616;2023-04-26T14:08:45;8.32;;;4.80;;
58196;SDS011;43999;51.660;5.616;2023-04-26T14:11:13;5.72;;;4.60;;
58196;SDS011;43999;51.660;5.616;2023-04-26T14:13:43;8.10;;;5.28;;
58196;SDS011;43999;51.660;5.616;2023-04-26T14:16:23;7.53;;;4.50;;
58196;SDS011;43999;51.660;5.616;2023-04-26T14:18:52;8.75;;;5.60;;
58196;SDS011;43999;51.660;5.616;2023-04-26T14:21:20;8.88;;;4.88;;
58196;SDS011;43999;51.660;5.616;2023-04-26T14:23:49;5.75;;;4.28;;
58196;SDS011;43999;51.660;5.616;2023-04-26T14:26:24;5.30;;;4.15;;
58196;SDS011;43999;51.660;5.616;2023-04-26T14:28:51;8.82;;;5.22;;
58196;SDS011;43999;51.660;5.616;2023-04-26T14:31:20;5.43;;;3.85;;
58196;SDS011;43999;51.660;5.616;2023-04-26T14:33:51;6.07;;;4.22;;
58196;SDS011;43999;51.660;5.616;2023-04-26T14:36:20;4.25;;;3.80;;
58196;SDS011;43999;51.660;5.616;2023-04-26T14:38:48;5.78;;;4.00;;
58196;SDS011;43999;51.660;5.616;2023-04-26T14:41:20;7.45;;;4.50;;
58196;SDS011;43999;51.660;5.616;2023-04-26T14:43:51;6.78;;;5.53;;
58196;SDS011;43999;51.660;5.616;2023-04-26T14:46:21;5.13;;;4.18;;
58196;SDS011;43999;51.660;5.616;2023-04-26T14:48:51;7.90;;;4.32;;
58196;SDS011;43999;51.660;5.616;2023-04-26T14:51:23;5.97;;;4.45;;
58196;SDS011;43999;51.660;5.616;2023-04-26T14:53:53;7.47;;;5.93;;
58196;SDS011;43999;51.660;5.616;2023-04-26T14:56:20;14.82;;;6.05;;
58196;SDS011;43999;51.660;5.616;2023-04-26T14:58:49;6.05;;;5.43;;
58196;SDS011;43999;51.660;5.616;2023-04-26T15:01:17;7.82;;;4.50;;
58196;SDS011;43999;51.660;5.616;2023-04-26T15:03:47;5.70;;;5.00;;
58196;SDS011;43999;51.660;5.616;2023-04-26T15:06:20;6.22;;;4.82;;
58196;SDS011;43999;51.660;5.616;2023-04-26T15:08:52;7.82;;;5.15;;
58196;SDS011;43999;51.660;5.616;2023-04-26T15:11:19;5.68;;;4.22;;
58196;SDS011;43999;51.660;5.616;2023-04-26T15:13:51;8.38;;;4.72;;
58196;SDS011;43999;51.660;5.616;2023-04-26T15:16:21;5.03;;;4.05;;
58196;SDS011;43999;51.660;5.616;2023-04-26T15:18:50;6.65;;;4.78;;
58196;SDS011;43999;51.660;5.616;2023-04-26T15:21:19;5.95;;;4.78;;
58196;SDS011;43999;51.660;5.616;2023-04-26T15:23:47;7.40;;;5.45;;
58196;SDS011;43999;51.660;5.616;2023-04-26T15:26:16;6.00;;;4.70;;
58196;SDS011;43999;51.660;5.616;2023-04-26T15:28:51;8.32;;;5.30;;